Latest Weather Observations for Kilmore Gap

IDV60801

Issued at 6:02 pm EST Wednesday 5 August 2015 (issued every 30 minutes, with the page automatically refreshed every 10 minutes)

About weather observations | Map of weather stations | Latest weather observations for VIC | Other Formats
Station Details ID: 088162 Name: KILMORE GAP Lat: -37.38 Lon: 144.97 Height: 527.8 m
Data from the previous 72 hours. | See also: Recent months at Kilmore Gap
Date/Time
EST
Temp
°C
App
Temp
°C
Dew
Point
Rel
Hum
%
Delta-T
°C
Wind Press
QNH
hPa
Press
MSL
hPa
Rain
since 9 am
mm
Dir
 
Spd
km/h
Gust
km/h
Spd
kts
Gust
kts
05/06:00pm 4.1 -1.1 2.6 90 0.6 SW 19 30 10 16 1014.0 1014.8 0.2
05/05:30pm 4.3 -1.1 2.5 88 0.7 SW 20 32 11 17 1013.7 - 0.2
05/05:00pm 4.6 -2.0 2.1 84 1.0 SSW 26 44 14 24 1013.5 - 0.2
05/04:31pm 5.1 -2.1 1.0 75 1.7 SW 28 46 15 25 1013.2 - 0.2
05/04:30pm 5.0 -2.1 1.3 77 1.5 SW 28 43 15 23 1013.2 - 0.2
05/04:00pm 5.7 -1.6 2.2 78 1.5 SW 30 46 16 25 1013.0 - 0.2
05/03:41pm 5.9 -1.1 1.8 75 1.7 SW 28 46 15 25 1012.8 - 0.2
05/03:30pm 6.1 -0.4 2.6 78 1.5 SW 26 37 14 20 1012.7 - 0.2
05/03:00pm 5.8 0.1 2.8 81 1.3 SW 22 35 12 19 1012.4 1013.2 0.2
05/02:30pm 5.5 -1.8 2.2 79 1.4 SW 30 43 16 23 1012.3 - 0.2
05/02:00pm 5.4 0.4 3.4 87 0.9 SSW 19 28 10 15 1012.2 - 0.2
05/01:30pm 6.7 0.8 3.7 81 1.3 WSW 24 37 13 20 1012.0 - 0.2
05/01:00pm 6.4 -0.3 3.7 83 1.2 WSW 28 39 15 21 1012.0 - 0.2
05/12:30pm 5.7 -0.6 3.9 88 0.8 SW 26 43 14 23 1012.4 - 0.2
05/12:00pm 5.9 -0.2 2.9 81 1.3 SW 24 37 13 20 1012.7 1013.5 0.0
05/11:30am 4.6 -1.1 2.9 89 0.7 WSW 22 33 12 18 1012.9 - 0.0
05/11:14am 4.4 -2.9 2.4 87 0.8 WSW 30 44 16 24 1013.0 - 0.0
05/11:04am 5.2 -1.7 2.7 84 1.1 WSW 28 46 15 25 1012.7 - 0.0
05/11:00am 5.7 0.1 3.2 84 1.1 WSW 22 37 12 20 1012.7 - 0.0
05/10:30am 5.8 -0.2 3.5 85 1.0 WSW 24 39 13 21 1012.6 - 0.0
05/10:28am 5.9 0.0 3.7 86 1.0 WSW 24 39 13 21 1012.4 - 0.0
05/10:00am 5.4 0.3 3.9 90 0.7 WSW 20 32 11 17 1012.4 - 0.0
05/09:30am 5.3 0.2 4.3 93 0.4 WSW 20 26 11 14 1012.4 - 0.0
05/09:16am 5.1 0.1 4.5 96 0.3 WSW 20 33 11 18 1012.4 - 0.0
05/09:00am 4.7 -0.4 4.0 95 0.3 WSW 20 28 11 15 1012.4 1013.2 2.0
05/08:57am 4.6 -0.3 4.0 96 0.3 WSW 19 28 10 15 1012.4 - 2.0
05/08:41am 4.6 0.5 4.2 97 0.2 WSW 15 22 8 12 1012.4 - 2.0
05/08:37am 4.8 0.3 4.2 96 0.3 WSW 17 22 9 12 1012.3 - 1.8
05/08:30am 4.8 0.3 4.4 97 0.2 W 17 24 9 13 1012.3 - 1.8
05/08:00am 4.6 -0.3 4.0 96 0.3 W 19 22 10 12 1011.9 - 1.8
05/07:30am 4.5 0.0 4.2 98 0.1 W 17 22 9 12 1011.8 - 1.8
05/07:20am 4.4 0.3 4.1 98 0.1 W 15 22 8 12 1011.8 - 1.8
05/07:00am 4.5 0.8 4.2 98 0.1 W 13 20 7 11 1011.5 - 1.8
05/06:55am 4.5 0.4 4.2 98 0.1 W 15 20 8 11 1011.5 - 1.8
05/06:46am 4.5 0.0 4.2 98 0.1 W 17 20 9 11 1011.4 - 1.8
05/06:30am 4.6 -0.5 4.3 98 0.1 W 20 32 11 17 1011.4 - 1.6
05/06:01am 4.9 -0.1 4.6 98 0.1 W 20 28 11 15 1011.2 - 0.6
05/06:00am 4.9 -0.1 4.6 98 0.1 W 20 28 11 15 1011.2 1012.0 0.6
05/05:58am 5.0 0.2 4.7 98 0.1 WNW 19 26 10 14 1011.2 - 0.6
05/05:30am 5.1 0.1 4.5 96 0.3 WNW 20 30 11 16 1010.8 - 0.0
05/05:26am 5.1 0.1 4.5 96 0.3 WNW 20 30 11 16 1010.8 - 0.0
05/05:03am 5.2 -0.6 4.3 94 0.4 NW 24 35 13 19 1010.8 - 0.0
05/05:00am 5.2 -0.6 4.3 94 0.4 NW 24 35 13 19 1010.9 - 0.0
05/04:30am 5.5 -0.3 4.2 91 0.6 NW 24 32 13 17 1010.8 - 0.0
05/04:14am 5.6 0.1 4.2 91 0.6 NW 22 30 12 16 1011.1 - 0.0
05/04:00am 5.4 0.0 4.7 95 0.3 NW 22 32 12 17 1011.2 - 0.0
05/03:30am 5.2 0.4 4.5 95 0.3 NW 19 24 10 13 1011.4 - 0.0
05/03:00am 5.4 -0.5 3.9 90 0.7 NW 24 35 13 19 1011.4 1012.2 0.0
05/02:30am 5.5 -0.8 4.0 90 0.7 NW 26 35 14 19 1012.0 - 0.0
05/02:00am 5.4 -0.4 4.5 94 0.4 NNW 24 37 13 20 1012.4 - 0.0
05/01:30am 5.5 -0.3 4.3 92 0.5 NNW 24 33 13 18 1012.8 - 0.0
05/01:00am 5.3 -0.9 4.3 93 0.4 NW 26 35 14 19 1013.2 - 0.0
05/12:30am 5.0 -2.3 4.3 95 0.3 NNW 32 44 17 24 1013.0 - 0.0
05/12:11am 4.9 -1.7 4.3 96 0.3 NNW 28 35 15 19 1013.4 - 0.0
05/12:00am 4.8 -2.1 4.4 97 0.2 NNW 30 37 16 20 1013.8 1014.6 0.0
 
Date/Time
EST
Temp
°C
App
Temp
°C
Dew
Point
Rel
Hum
%
Delta-T
°C
Wind Press
QNH
hPa
Press
MSL
hPa
Rain
since 9 am
mm
Dir
 
Spd
km/h
Gust
km/h
Spd
kts
Gust
kts
04/11:30pm 4.5 -2.5 4.2 98 0.1 NNW 30 43 16 23 1014.0 - 0.0
04/11:23pm 4.4 -2.6 4.1 98 0.1 NNW 30 39 16 21 1014.1 - 0.0
04/11:00pm 4.3 -2.7 4.0 98 0.1 NNW 30 37 16 20 1014.8 - 0.0
04/10:30pm 4.3 -3.1 4.0 98 0.1 N 32 43 17 23 1015.3 - 0.0
04/10:00pm 4.2 -3.4 3.9 98 0.1 N 33 43 18 23 1015.4 - 0.0
04/09:30pm 4.0 -3.5 3.7 98 0.1 N 32 44 17 24 1015.7 - 0.0
04/09:00pm 3.9 -3.2 3.3 96 0.3 N 30 37 16 20 1016.0 1016.9 0.0
04/08:30pm 4.0 -2.8 3.0 93 0.4 N 28 35 15 19 1016.9 - 0.0
04/08:00pm 4.0 -3.3 2.5 90 0.6 N 30 37 16 20 1017.0 - 0.0
04/07:43pm 4.0 -3.3 2.4 89 0.7 N 30 37 16 20 1017.1 - 0.0
04/07:30pm 4.1 -3.6 2.3 88 0.7 N 32 39 17 21 1017.2 - 0.0
04/07:00pm 3.9 -3.0 2.3 89 0.7 N 28 33 15 18 1017.4 - 0.0
04/06:30pm 3.5 -2.4 2.0 90 0.6 N 22 28 12 15 1017.6 - 0.0
04/06:00pm 3.8 -2.8 1.8 87 0.8 N 26 32 14 17 1017.7 1018.6 0.0
04/05:30pm 4.0 -3.0 1.7 85 0.9 N 28 32 15 17 1017.5 - 0.0
04/05:00pm 4.7 -1.5 2.1 83 1.1 NNW 24 32 13 17 1017.9 - 0.0
04/04:30pm 4.9 -0.6 1.6 79 1.4 NNW 20 26 11 14 1018.1 - 0.0
04/04:00pm 5.1 -0.5 1.4 77 1.5 N 20 26 11 14 1018.2 - 0.0
04/03:30pm 5.1 -0.3 1.2 76 1.6 NNW 19 24 10 13 1018.9 - 0.0
04/03:00pm 5.0 -0.4 1.3 77 1.5 NW 19 28 10 15 1019.3 1020.2 0.0
04/02:30pm 5.2 -0.2 1.0 74 1.7 WNW 19 26 10 14 1019.4 - 0.0
04/02:00pm 5.4 -0.3 0.8 72 1.9 WNW 20 28 11 15 1019.4 - 0.0
04/01:30pm 5.4 -0.2 1.0 73 1.8 WNW 20 32 11 17 1019.7 - 0.0
04/01:00pm 5.4 -0.3 0.6 71 1.9 WNW 20 30 11 16 1020.1 - 0.0
04/12:30pm 6.0 0.4 1.0 70 2.0 WNW 20 30 11 16 1020.6 - 0.0
04/12:00pm 6.0 0.6 1.2 71 2.0 WNW 19 28 10 15 1021.3 1022.2 0.0
04/11:30am 6.1 0.6 0.6 68 2.2 WNW 19 26 10 14 1021.7 - 0.0
04/11:00am 5.6 0.1 0.6 70 2.0 WNW 19 28 10 15 1021.8 - 0.0
04/10:30am 5.1 0.0 0.5 72 1.8 NW 17 22 9 12 1022.1 - 0.0
04/10:00am 4.4 -0.6 1.1 79 1.3 WNW 17 24 9 13 1022.2 - 0.0
04/09:30am 3.6 -1.1 1.0 83 1.0 WNW 15 20 8 11 1022.2 - 0.0
04/09:00am 3.1 -1.6 0.8 85 0.9 NW 15 20 8 11 1022.2 1023.2 0.4
04/08:30am 2.3 -2.5 0.5 88 0.7 NW 15 19 8 10 1022.3 - 0.4
04/08:00am 1.9 -2.9 0.1 88 0.7 NW 15 19 8 10 1022.3 - 0.4
04/07:30am 1.5 -3.4 -0.6 86 0.8 NW 15 19 8 10 1022.2 - 0.4
04/07:00am 1.6 -3.0 -1.1 82 1.0 NW 13 17 7 9 1022.1 - 0.4
04/06:30am 1.6 -3.0 -1.3 81 1.1 NW 13 15 7 8 1022.1 - 0.4
04/06:00am 1.6 -3.1 -1.5 80 1.1 NNW 13 17 7 9 1021.9 1022.8 0.4
04/05:30am 1.1 -3.3 -2.1 79 1.2 NW 11 15 6 8 1021.7 - 0.4
04/05:00am 0.7 -3.3 -2.3 80 1.1 NW 9 13 5 7 1021.7 - 0.4
04/04:30am 1.6 -1.9 -1.6 79 1.2 WNW 7 9 4 5 1021.7 - 0.4
04/04:00am 1.7 -2.2 -1.2 81 1.1 W 9 11 5 6 1021.7 - 0.4
04/03:30am 2.0 -2.5 -0.6 83 1.0 W 13 15 7 8 1021.8 - 0.4
04/03:00am 2.1 -2.8 -0.5 83 1.0 W 15 20 8 11 1021.8 1022.7 0.4
04/02:30am 1.8 -3.1 -0.4 85 0.8 W 15 19 8 10 1022.1 - 0.4
04/02:00am 1.7 -3.2 -0.4 86 0.8 W 15 22 8 12 1022.1 - 0.4
04/01:30am 1.7 -2.8 -0.4 86 0.8 W 13 19 7 10 1022.2 - 0.4
04/01:00am 2.0 -3.2 -0.2 85 0.8 W 17 22 9 12 1022.2 - 0.4
04/12:30am 1.8 -3.5 -0.3 86 0.8 W 17 20 9 11 1022.2 - 0.4
04/12:00am 1.6 -2.9 -0.5 86 0.8 W 13 19 7 10 1022.4 1023.4 0.4
 
Date/Time
EST
Temp
°C
App
Temp
°C
Dew
Point
Rel
Hum
%
Delta-T
°C
Wind Press
QNH
hPa
Press
MSL
hPa
Rain
since 9 am
mm
Dir
 
Spd
km/h
Gust
km/h
Spd
kts
Gust
kts
03/11:30pm 1.5 -3.8 -0.6 86 0.8 WSW 17 24 9 13 1022.3 - 0.4
03/11:00pm 1.5 -3.4 -0.6 86 0.8 W 15 19 8 10 1022.3 - 0.4
03/10:30pm 1.5 -3.4 -0.7 85 0.8 W 15 17 8 9 1022.6 - 0.4
03/10:00pm 1.6 -3.7 -0.6 85 0.8 WSW 17 20 9 11 1022.7 - 0.4
03/09:30pm 1.6 -3.3 -0.3 87 0.7 WSW 15 19 8 10 1022.7 - 0.4
03/09:00pm 1.7 -3.1 0.2 90 0.6 WSW 15 19 8 10 1022.6 1023.5 0.4
03/08:30pm 1.7 -2.7 0.5 92 0.5 WSW 13 17 7 9 1022.4 - 0.4
03/08:00pm 1.9 -2.5 0.3 89 0.6 SW 13 19 7 10 1022.2 - 0.4
03/07:30pm 2.4 -2.4 0.0 84 0.9 SW 15 20 8 11 1022.0 - 0.4
03/07:00pm 2.6 -2.2 0.2 84 0.9 SSW 15 20 8 11 1021.6 - 0.4
03/06:30pm 2.9 -2.2 0.6 85 0.9 SSW 17 24 9 13 1021.3 - 0.4
03/06:00pm 3.3 -1.6 -0.2 78 1.3 SSW 15 24 8 13 1021.1 1022.0 0.4
03/05:30pm 3.5 -1.3 0.2 79 1.3 SSW 15 26 8 14 1020.8 - 0.4
03/05:00pm 3.8 -1.3 1.0 82 1.1 SSW 17 28 9 15 1020.4 - 0.4
03/04:30pm 4.4 -1.1 0.4 75 1.6 S 19 26 10 14 1019.9 - 0.4
03/04:00pm 4.7 -0.9 -0.3 70 1.9 SSW 19 32 10 17 1019.6 - 0.4
03/03:30pm 5.0 -1.3 -1.2 64 2.4 SSW 22 35 12 19 1019.3 - 0.4
03/03:00pm 5.5 -1.6 -1.4 61 2.6 SW 26 39 14 21 1019.1 1020.0 0.4
03/02:30pm 5.4 -0.2 0.2 69 2.1 SSW 19 32 10 17 1018.9 - 0.4
03/02:00pm 5.2 -2.8 -2.1 59 2.7 SW 30 48 16 26 1018.7 - 0.4
03/01:47pm 5.2 -3.1 -1.5 62 2.5 SW 32 50 17 27 1018.6 - 0.4
03/01:30pm 5.7 -2.1 -0.6 64 2.5 WSW 30 44 16 24 1018.4 - 0.4
03/01:03pm 5.6 -1.8 -0.9 63 2.5 SW 28 48 15 26 1018.2 - 0.4
03/01:00pm 6.4 -0.3 1.3 70 2.1 SW 26 39 14 21 1018.2 - 0.4
03/12:30pm 5.1 -2.3 -0.5 67 2.2 SW 28 41 15 22 1018.2 - 0.4
03/12:00pm 5.0 -2.2 0.4 72 1.8 SW 28 44 15 24 1018.2 1019.1 0.4
03/11:30am 4.3 -2.7 1.7 83 1.1 SSW 28 41 15 22 1018.3 - 0.4
03/11:09am 3.1 -4.8 0.8 85 0.9 SW 32 50 17 27 1018.1 - 0.4
03/11:00am 4.0 -2.3 1.4 83 1.1 SW 24 35 13 19 1017.9 - 0.2
03/10:33am 4.0 -3.1 1.5 84 1.0 SW 28 46 15 25 1018.0 - 0.2
03/10:30am 4.1 -3.3 1.6 84 1.0 SW 30 46 16 25 1018.0 - 0.2
03/10:29am 4.1 -3.3 1.6 84 1.0 SW 30 46 16 25 1018.0 - 0.2
03/10:13am 3.8 -3.2 2.0 88 0.7 SW 28 46 15 25 1017.8 - 0.2
03/10:09am 3.8 -3.2 1.8 87 0.8 SW 28 46 15 25 1017.7 - 0.2
03/10:00am 4.0 -1.3 3.0 93 0.4 SW 20 32 11 17 1017.6 - 0.2
03/09:38am 3.2 -2.9 2.8 97 0.2 WSW 24 41 13 22 1017.1 - 0.2
03/09:30am 2.7 -4.3 2.1 96 0.2 SW 28 46 15 25 1017.0 - 0.2
03/09:22am 2.8 -4.9 2.2 96 0.2 SW 32 54 17 29 1016.8 - 0.2
03/09:16am 2.7 -4.6 2.4 98 0.1 SW 30 54 16 29 1016.8 - 0.2
03/09:00am 3.0 -3.1 2.7 98 0.1 SW 24 44 13 24 1016.7 1017.5 5.4
03/08:30am 2.7 -3.5 2.4 98 0.1 SSW 24 33 13 18 1016.1 - 5.4
03/08:00am 3.2 -2.9 2.9 98 0.1 SW 24 32 13 17 1015.4 - 5.0
03/07:59am 3.2 -2.5 2.9 98 0.1 SW 22 32 12 17 1015.4 - 5.0
03/07:55am 3.2 -2.9 2.9 98 0.1 SW 24 32 13 17 1015.4 - 5.0
03/07:51am 3.2 -2.5 2.9 98 0.1 SW 22 33 12 18 1015.3 - 5.0
03/07:33am 3.5 -3.0 2.9 96 0.3 SW 26 43 14 23 1014.9 - 5.0
03/07:30am 3.6 -2.5 2.7 94 0.4 SW 24 43 13 23 1014.8 - 5.0
03/07:00am 4.6 -0.5 2.9 89 0.7 WSW 19 28 10 15 1014.1 - 5.0
03/06:43am 4.8 -2.8 2.7 86 0.9 W 32 50 17 27 1013.7 - 4.8
03/06:30am 5.1 -2.7 2.8 85 1.0 W 33 46 18 25 1013.6 - 4.8
03/06:03am 4.8 -0.7 3.9 94 0.4 W 22 32 12 17 1013.4 - 4.8
03/06:00am 4.7 -0.8 3.8 94 0.4 W 22 32 12 17 1013.3 1014.1 4.8
03/05:51am 4.6 0.5 4.3 98 0.1 WNW 15 28 8 15 1013.2 - 4.8
03/05:30am 4.6 0.5 4.3 98 0.1 WNW 15 20 8 11 1013.3 - 4.6
03/05:26am 4.6 0.5 4.3 98 0.1 WNW 15 22 8 12 1013.3 - 4.6
03/05:07am 4.6 -0.5 4.3 98 0.1 NW 20 28 11 15 1013.0 - 4.4
03/05:06am 4.5 -0.6 4.2 98 0.1 NW 20 28 11 15 1013.0 - 4.2
03/05:03am 4.5 -0.6 4.2 98 0.1 NNW 20 24 11 13 1012.8 - 4.2
03/05:00am 4.5 -0.4 4.2 98 0.1 NW 19 24 10 13 1012.8 - 4.2
03/04:49am 4.5 0.0 4.2 98 0.1 NNW 17 24 9 13 1012.8 - 4.2
03/04:30am 4.6 0.5 4.3 98 0.1 WNW 15 24 8 13 1013.2 - 4.2
03/04:05am 4.8 0.0 4.5 98 0.1 WNW 19 28 10 15 1012.6 - 3.0
03/04:00am 4.7 -0.3 4.4 98 0.1 NW 20 28 11 15 1012.6 - 3.0
03/03:37am 4.7 -0.7 4.4 98 0.1 NW 22 32 12 17 1012.4 - 3.0
03/03:30am 4.7 -1.1 4.4 98 0.1 NW 24 32 13 17 1012.4 - 3.0
03/03:18am 4.8 -0.6 4.5 98 0.1 NW 22 28 12 15 1012.9 - 2.8
03/03:00am 4.8 -1.0 4.5 98 0.1 NNW 24 30 13 16 1012.6 1013.4 2.6
03/02:54am 4.7 -1.1 4.4 98 0.1 NNW 24 32 13 17 1012.8 - 2.6
03/02:30am 4.8 -1.0 4.5 98 0.1 NNW 24 30 13 16 1012.9 - 2.4
03/02:13am 4.9 -0.5 4.6 98 0.1 WNW 22 32 12 17 1013.0 - 2.2
03/02:08am 5.0 -0.8 4.6 97 0.2 NW 24 32 13 17 1012.8 - 2.2
03/02:00am 5.1 -0.2 4.8 98 0.1 WNW 22 33 12 18 1012.8 - 2.0
03/01:59am 5.1 -0.6 4.8 98 0.1 WNW 24 33 13 18 1012.8 - 2.0
03/01:30am 4.9 -0.1 4.6 98 0.1 N 20 26 11 14 1012.8 - 1.8
03/01:29am 4.9 -0.1 4.6 98 0.1 N 20 26 11 14 1012.8 - 1.8
03/01:24am 4.8 -0.2 4.5 98 0.1 N 20 26 11 14 1012.9 - 1.8
03/01:20am 4.9 -0.5 4.6 98 0.1 N 22 26 12 14 1012.9 - 1.8
03/01:14am 4.9 -0.1 4.6 98 0.1 NNW 20 26 11 14 1012.9 - 1.8
03/01:03am 5.0 0.0 4.7 98 0.1 NNW 20 24 11 13 1013.1 - 1.8
03/01:00am 5.0 0.0 4.7 98 0.1 NNW 20 26 11 14 1013.1 - 1.8
03/12:53am 5.1 -0.2 4.8 98 0.1 N 22 26 12 14 1012.9 - 1.6
03/12:45am 5.1 0.1 4.7 97 0.2 N 20 24 11 13 1012.9 - 1.6
03/12:35am 5.2 0.1 4.3 94 0.4 NNW 20 26 11 14 1013.1 - 1.6
03/12:30am 5.2 0.1 4.3 94 0.4 NNW 20 26 11 14 1013.2 - 1.4
03/12:00am 5.3 -0.1 4.6 95 0.3 N 22 28 12 15 1012.9 1013.7 1.4
 
Date/Time
EST
Temp
°C
App
Temp
°C
Dew
Point
Rel
Hum
%
Delta-T
°C
Wind Press
QNH
hPa
Press
MSL
hPa
Rain
since 9 am
mm
Dir
 
Spd
km/h
Gust
km/h
Spd
kts
Gust
kts
02/11:30pm 5.9 0.6 3.1 82 1.2 NW 20 30 11 16 1012.9 - 1.4
02/11:00pm 6.1 0.7 2.7 79 1.4 WNW 20 32 11 17 1012.8 - 1.4
02/10:30pm 6.0 0.4 3.7 85 1.0 W 22 35 12 19 1013.1 - 1.4
02/10:00pm 6.2 1.8 5.0 92 0.5 WNW 17 24 9 13 1012.8 - 1.4
02/09:50pm 6.2 1.5 5.0 92 0.5 W 19 24 10 13 1012.8 - 1.4
02/09:30pm 6.5 2.4 6.2 98 0.1 W 17 26 9 14 1012.8 - 1.2
02/09:17pm 6.5 1.4 6.2 98 0.1 WNW 22 32 12 17 1012.4 - 1.2
02/09:00pm 6.6 1.6 6.5 99 0.0 NW 22 28 12 15 1012.3 1013.1 1.0
02/08:59pm 6.6 1.6 6.5 99 0.0 NW 22 28 12 15 1012.3 - 1.0
02/08:55pm 6.6 1.2 6.5 99 0.0 NNW 24 32 13 17 1012.2 - 0.8
02/08:48pm 6.6 1.2 6.5 99 0.0 NNW 24 32 13 17 1012.0 - 0.6
02/08:37pm 6.6 0.5 6.5 99 0.0 N 28 37 15 20 1011.8 - 0.6
02/08:30pm 6.4 0.6 6.3 99 0.0 N 26 30 14 16 1011.9 - 0.6
02/08:00pm 6.3 0.4 6.0 98 0.1 N 26 33 14 18 1012.0 - 0.6
02/07:51pm 6.3 0.4 6.0 98 0.1 N 26 33 14 18 1012.0 - 0.6
02/07:34pm 6.7 0.5 6.3 97 0.2 NNW 28 37 15 20 1012.2 - 0.4
02/07:30pm 6.8 0.2 6.2 96 0.3 NNW 30 39 16 21 1012.1 - 0.2
02/07:00pm 7.3 0.2 5.4 88 0.9 NNW 32 41 17 22 1011.6 - 0.2
02/06:30pm 7.8 0.6 4.9 82 1.3 NNW 32 41 17 22 1011.3 - 0.0

Other Formats:

Comma delimited format used in spreadsheet applications
http://www.bom.gov.au/fwo/IDV60801/IDV60801.94860.axf

JavaScript Object Notation format (JSON) in row-major order
http://www.bom.gov.au/fwo/IDV60801/IDV60801.94860.json